Startpagina
Satellietbeelden 10-daagse weersverwachtingenKlimaatWeer op zee Cyclonen Bliksem VliegveldenFAQ Nieuwsbrief Over ons
Weer : Europa Afrika Noord-Amerika Zuid-Amerika Azië Australië-Oceanië Overige
Talen Contact

Oostende, België

Internationale Luchthaven Oostende-Brugge

breedte: 51-12N, lengte: 002-52E, hoogte: 4 m


METAR: EBOS 310450Z 14003KT 5000 R08/0375V1600U R26/1200VP2000U MIFG FEW025 07/06 Q1020 BECMG 9999
TAF: EBOS 310323Z 3103/0106 VRB03KT 9999 FEW025 TEMPO 3103/3106 3000 MIFG PROB40 TEMPO 3104/3106 0800 BCFG

Tijdstip: 07:01 (05:01 UTC)

Actueel weer

Dit bericht is 11 minuten geleden gemaakt, om 04:50 UTC
Wind 3 kt uit het zuidoosten
Temperatuur 7°C
Vochtigheid 93%
Druk 1020 hPa
Zicht: 5000 m
Weinig wolken op 2500 ft
Ondiepe mist

Eenheden wijzigen

Verwachting

Dit bericht is 1 uur en het 38 minuten geleden gemaakt, om 03:23 UTC
Verwachting geldig van 31 om 03 UTC tot 01 om 06 UTC
Wind 3 kt uit variabele richting
Zicht 10 km of meer
Weinig wolken op 2500 ft
Tijdelijke
van 31 om 03 UTC tot 31 om 06 UTC
Zicht: 3000 m
Ondiepe mist
Kans 40% :
Tijdelijke
van 31 om 04 UTC tot 31 om 06 UTC
Zicht: 0800 m
mistbanken
Voor de informatie op deze site geldt een disclaimer
Weer : Europa Afrika Noord-Amerika Zuid-Amerika Azië Australië-Oceanië Overige
Satellietbeelden 10-daagse weersverwachtingenKlimaatWeer op zee Cyclonen Bliksem VliegveldenFAQ Talen Contact Nieuwsbrief Over ons